createdAt,value
2023-05-14T00:00:37.700Z,13.00
2023-05-14T00:03:05.925Z,13.05
2023-05-14T00:05:35.367Z,12.63
2023-05-14T00:08:03.744Z,12.95
2023-05-14T00:10:32.104Z,12.23
2023-05-14T00:13:00.157Z,12.93
2023-05-14T00:15:28.164Z,13.32
2023-05-14T00:17:56.655Z,13.50
2023-05-14T00:20:25.349Z,14.23
2023-05-14T00:22:54.806Z,14.20
2023-05-14T00:25:22.735Z,14.18
2023-05-14T00:27:50.682Z,14.25
2023-05-14T00:30:18.711Z,13.73
2023-05-14T00:32:46.681Z,13.60
2023-05-14T00:35:14.657Z,14.77
2023-05-14T00:37:42.612Z,14.50
2023-05-14T00:40:13.585Z,13.82
2023-05-14T00:42:41.741Z,13.73
2023-05-14T00:45:10.421Z,15.05
2023-05-14T00:47:40.287Z,14.52
2023-05-14T00:50:09.452Z,15.25
2023-05-14T00:52:38.246Z,15.70
2023-05-14T00:55:08.200Z,15.05
2023-05-14T00:57:38.062Z,15.07
2023-05-14T01:00:07.693Z,16.05
2023-05-14T01:02:35.763Z,15.43
2023-05-14T01:05:04.235Z,15.55
2023-05-14T01:07:39.554Z,15.63
2023-05-14T01:10:12.708Z,15.75
2023-05-14T01:12:55.986Z,15.60
2023-05-14T01:15:28.827Z,15.27
2023-05-14T01:18:00.838Z,15.10
2023-05-14T01:20:28.831Z,14.98
2023-05-14T01:22:58.159Z,14.70
2023-05-14T01:25:26.388Z,14.65
2023-05-14T01:28:00.250Z,13.73
2023-05-14T01:30:32.479Z,14.95
2023-05-14T01:33:04.084Z,14.73
2023-05-14T01:35:32.115Z,14.55
2023-05-14T01:38:02.900Z,14.00
2023-05-14T01:40:32.695Z,14.77
2023-05-14T01:43:01.432Z,16.13
2023-05-14T01:45:29.378Z,15.40
2023-05-14T01:47:58.774Z,15.70
2023-05-14T01:50:26.684Z,15.68
2023-05-14T01:52:56.433Z,15.65
2023-05-14T01:55:26.105Z,15.23
2023-05-14T01:57:54.473Z,14.88
2023-05-14T02:00:25.372Z,15.73
2023-05-14T02:02:53.561Z,15.50
2023-05-14T02:05:22.013Z,16.05
2023-05-14T02:07:49.900Z,17.38
2023-05-14T02:10:18.930Z,15.93
2023-05-14T02:12:52.434Z,15.90
2023-05-14T02:15:20.351Z,16.73
2023-05-14T02:17:48.276Z,14.88
2023-05-14T02:20:16.358Z,16.38
2023-05-14T02:22:46.063Z,17.10
2023-05-14T02:25:14.173Z,17.15
2023-05-14T02:27:42.095Z,16.58
2023-05-14T02:30:12.743Z,16.77
2023-05-14T02:32:40.846Z,15.73
2023-05-14T02:35:09.898Z,16.70
2023-05-14T02:37:38.561Z,15.88
2023-05-14T02:40:08.118Z,17.10
2023-05-14T02:42:36.193Z,18.15
2023-05-14T02:45:04.256Z,17.08
2023-05-14T02:47:34.783Z,18.27
2023-05-14T02:50:04.894Z,19.25
2023-05-14T02:52:33.354Z,18.13
2023-05-14T02:55:01.265Z,18.77
2023-05-14T02:57:29.291Z,17.50
2023-05-14T02:59:57.232Z,18.67
2023-05-14T03:02:25.826Z,18.38
2023-05-14T03:04:55.592Z,19.13
2023-05-14T03:07:23.526Z,19.65
2023-05-14T03:09:51.466Z,18.98
2023-05-14T03:12:21.067Z,20.35
2023-05-14T03:14:49.024Z,21.95
2023-05-14T03:17:16.930Z,21.25
2023-05-14T03:19:46.115Z,21.13
2023-05-14T03:22:15.691Z,20.67
2023-05-14T03:24:43.605Z,18.98
2023-05-14T03:27:11.764Z,20.13
2023-05-14T03:29:39.609Z,21.17
2023-05-14T03:32:08.126Z,21.60
2023-05-14T03:34:36.751Z,20.50
2023-05-14T03:37:04.976Z,20.73
2023-05-14T03:39:34.374Z,20.23
2023-05-14T03:42:02.370Z,20.30
2023-05-14T03:44:30.562Z,21.40
2023-05-14T03:46:58.506Z,22.58
2023-05-14T03:49:26.674Z,21.02
2023-05-14T03:51:54.573Z,20.45
2023-05-14T03:54:22.542Z,21.50
2023-05-14T03:56:51.811Z,21.15
2023-05-14T03:59:19.745Z,21.00
2023-05-14T04:01:47.636Z,20.90
2023-05-14T04:04:15.605Z,20.70
2023-05-14T04:06:43.565Z,21.27
2023-05-14T04:09:11.913Z,21.17
2023-05-14T04:11:39.958Z,21.70
2023-05-14T04:14:09.278Z,20.15
2023-05-14T04:16:37.332Z,19.58
2023-05-14T04:19:05.810Z,20.73
2023-05-14T04:21:33.737Z,20.42
2023-05-14T04:24:01.625Z,20.80
2023-05-14T04:26:29.539Z,20.20
2023-05-14T04:28:58.194Z,20.27
2023-05-14T04:31:27.722Z,20.85
2023-05-14T04:33:55.637Z,20.90
2023-05-14T04:36:23.537Z,20.75
2023-05-14T04:38:51.625Z,21.33
2023-05-14T04:41:19.525Z,20.42
2023-05-14T04:43:48.258Z,21.38
2023-05-14T04:46:16.484Z,21.42
2023-05-14T04:48:45.830Z,21.52
2023-05-14T04:51:13.755Z,21.00
2023-05-14T04:53:41.618Z,21.17
2023-05-14T04:56:09.871Z,21.08
2023-05-14T04:58:37.732Z,20.73
2023-05-14T05:01:07.244Z,21.33
2023-05-14T05:03:35.296Z,20.33
2023-05-14T05:06:04.826Z,21.65
2023-05-14T05:08:32.734Z,22.17
2023-05-14T05:11:00.840Z,21.15
2023-05-14T05:13:28.765Z,22.13
2023-05-14T05:15:56.707Z,21.38
2023-05-14T05:18:24.747Z,21.98
2023-05-14T05:20:53.207Z,21.38
2023-05-14T05:23:22.549Z,21.98
2023-05-14T05:25:50.923Z,21.48
2023-05-14T05:28:18.802Z,21.98
2023-05-14T05:30:46.701Z,21.67
2023-05-14T05:33:14.680Z,20.65
2023-05-14T05:35:44.423Z,20.05
2023-05-14T05:38:12.350Z,20.38
2023-05-14T05:40:41.681Z,21.23
2023-05-14T05:43:09.633Z,21.48
2023-05-14T05:45:37.498Z,20.52
2023-05-14T05:51:51.811Z,20.52
2023-05-14T05:54:19.707Z,20.35
2023-05-14T05:56:48.947Z,21.52
2023-05-14T05:59:16.917Z,20.80
2023-05-14T06:01:46.224Z,20.42
2023-05-14T06:04:14.138Z,20.50
2023-05-14T06:06:42.168Z,21.17
2023-05-14T06:09:10.352Z,21.88
2023-05-14T06:11:38.260Z,22.20
2023-05-14T06:14:07.644Z,22.90
2023-05-14T06:16:35.724Z,21.08
2023-05-14T06:19:03.687Z,20.20
2023-05-14T06:21:31.663Z,20.25
2023-05-14T06:23:59.571Z,19.83
2023-05-14T06:26:27.695Z,20.42
2023-05-14T06:28:55.848Z,19.88
2023-05-14T06:31:25.105Z,19.75
2023-05-14T06:33:53.037Z,20.65
2023-05-14T06:36:20.922Z,19.00
2023-05-14T06:38:48.797Z,19.67
2023-05-14T06:41:17.906Z,19.73
2023-05-14T06:43:45.910Z,19.95
2023-05-14T06:46:13.789Z,19.27
2023-05-14T06:48:43.449Z,20.67
2023-05-14T06:51:13.192Z,18.38
2023-05-14T06:53:41.755Z,18.77
2023-05-14T06:56:09.665Z,18.30
2023-05-14T06:58:37.566Z,18.60
2023-05-14T07:01:06.566Z,17.65
2023-05-14T07:03:34.558Z,17.20
2023-05-14T07:06:03.881Z,16.55
2023-05-14T07:08:31.812Z,18.13
2023-05-14T07:11:01.820Z,17.92
2023-05-14T07:13:29.823Z,17.23
2023-05-14T07:15:57.814Z,17.40
2023-05-14T07:18:25.878Z,16.85
2023-05-14T07:20:54.184Z,16.27
2023-05-14T07:23:23.933Z,15.82
2023-05-14T07:25:54.043Z,15.85
2023-05-14T07:28:22.134Z,17.33
2023-05-14T07:30:50.142Z,16.25
2023-05-14T07:33:18.081Z,15.25
2023-05-14T07:35:46.164Z,15.57
2023-05-14T07:38:14.260Z,15.95
2023-05-14T07:40:43.566Z,16.35
2023-05-14T07:43:11.934Z,17.50
2023-05-14T07:45:40.122Z,15.63
2023-05-14T07:48:08.517Z,15.63
2023-05-14T07:50:36.573Z,15.63
2023-05-14T07:53:04.665Z,14.75
2023-05-14T07:55:32.605Z,14.80
2023-05-14T07:58:07.732Z,14.30
2023-05-14T08:00:36.064Z,14.30
2023-05-14T08:03:05.233Z,14.15
2023-05-14T08:05:33.568Z,14.40
2023-05-14T08:08:02.194Z,13.63
2023-05-14T08:10:30.711Z,14.82
2023-05-14T08:12:59.483Z,14.13
2023-05-14T08:15:29.201Z,14.15
2023-05-14T08:17:58.890Z,13.27
2023-05-14T08:20:27.523Z,13.13
2023-05-14T08:22:55.787Z,12.60
2023-05-14T08:25:24.087Z,13.07
2023-05-14T08:27:53.629Z,13.48
2023-05-14T08:30:22.088Z,13.35
2023-05-14T08:32:52.843Z,12.63
2023-05-14T08:35:21.118Z,13.68
2023-05-14T08:37:50.150Z,13.23
2023-05-14T08:40:18.614Z,12.95
2023-05-14T08:42:46.569Z,13.00
2023-05-14T08:45:19.106Z,13.23
2023-05-14T08:47:49.875Z,13.13
2023-05-14T08:50:23.840Z,13.00
2023-05-14T08:52:52.920Z,12.65
2023-05-14T08:55:22.424Z,13.07
2023-05-14T08:57:50.789Z,12.13
2023-05-14T09:00:20.052Z,12.15
2023-05-14T09:02:49.484Z,11.57
2023-05-14T09:05:20.321Z,12.07
2023-05-14T09:07:48.426Z,13.38
2023-05-14T09:10:17.240Z,13.63
2023-05-14T09:12:45.520Z,12.98
2023-05-14T09:15:13.854Z,13.30
2023-05-14T09:17:42.086Z,13.23
2023-05-14T09:20:15.953Z,13.73
2023-05-14T09:22:45.564Z,14.43
2023-05-14T09:25:13.578Z,12.98
2023-05-14T09:27:42.026Z,12.05
2023-05-14T09:30:12.081Z,11.93
2023-05-14T09:32:43.917Z,12.02
2023-05-14T09:35:18.138Z,12.05
2023-05-14T09:37:49.134Z,11.73
2023-05-14T09:40:19.646Z,11.48
2023-05-14T09:42:50.289Z,11.23
2023-05-14T09:45:19.103Z,10.73
2023-05-14T09:47:48.448Z,11.18
2023-05-14T09:50:16.537Z,11.32
2023-05-14T09:52:44.548Z,11.50
2023-05-14T09:55:14.445Z,11.00
2023-05-14T09:57:42.459Z,11.05
2023-05-14T10:00:12.984Z,10.43
2023-05-14T10:02:44.311Z,10.15
2023-05-14T10:05:15.915Z,10.77
2023-05-14T10:07:49.077Z,10.52
2023-05-14T10:10:20.922Z,10.18
2023-05-14T10:12:54.264Z,9.57
2023-05-14T10:18:03.900Z,9.90
2023-05-14T10:20:32.717Z,9.55
2023-05-14T10:23:02.049Z,8.98
2023-05-14T10:25:32.763Z,9.02
2023-05-14T10:28:01.158Z,8.45
2023-05-14T10:30:29.802Z,8.43
2023-05-14T10:33:09.924Z,9.18
2023-05-14T10:36:01.518Z,8.18
2023-05-14T10:38:30.912Z,8.18
2023-05-14T10:41:04.402Z,8.27
2023-05-14T10:43:37.422Z,8.38
2023-05-14T10:46:05.840Z,8.15
2023-05-14T10:48:34.475Z,7.50
2023-05-14T10:51:02.863Z,7.82
2023-05-14T10:53:35.589Z,7.70
2023-05-14T10:56:07.823Z,7.65
2023-05-14T10:58:39.161Z,7.97
2023-05-14T11:01:08.525Z,7.30
2023-05-14T11:03:42.431Z,7.95
2023-05-14T11:06:12.044Z,8.25
2023-05-14T11:08:40.452Z,7.85
2023-05-14T11:11:10.445Z,8.10
2023-05-14T11:13:38.539Z,7.38
2023-05-14T11:18:38.950Z,7.57
2023-05-14T11:21:06.942Z,7.30
2023-05-14T11:23:34.861Z,7.25
2023-05-14T11:26:03.069Z,7.45
2023-05-14T11:28:32.407Z,6.55
2023-05-14T11:31:00.370Z,6.88
2023-05-14T11:33:29.075Z,6.38
2023-05-14T11:35:56.937Z,7.75
2023-05-14T11:38:24.828Z,6.13
2023-05-14T11:40:54.112Z,6.28
2023-05-14T11:43:23.705Z,5.90
2023-05-14T11:45:54.546Z,6.00
2023-05-14T11:48:23.653Z,5.93
2023-05-14T11:50:53.198Z,5.88
2023-05-14T11:53:25.507Z,5.68
2023-05-14T11:55:55.143Z,5.78
2023-05-14T11:58:23.124Z,6.10
2023-05-14T12:00:53.051Z,5.40
2023-05-14T12:03:25.440Z,5.80
2023-05-14T12:05:58.032Z,5.15
2023-05-14T12:08:28.376Z,5.88
2023-05-14T12:11:00.033Z,5.47
2023-05-14T12:13:28.365Z,5.10
2023-05-14T12:15:59.606Z,4.72
2023-05-14T12:18:29.498Z,4.78
2023-05-14T12:21:03.015Z,5.68
2023-05-14T12:23:34.201Z,5.28
2023-05-14T12:26:08.073Z,5.50
2023-05-14T12:28:38.517Z,5.00
2023-05-14T12:31:08.783Z,5.07
2023-05-14T12:33:36.733Z,5.70
2023-05-14T12:36:20.447Z,4.75
2023-05-14T12:38:49.171Z,5.07
2023-05-14T12:41:17.682Z,4.72
2023-05-14T12:43:46.177Z,4.78
2023-05-14T12:46:16.391Z,5.00
2023-05-14T12:48:44.365Z,5.03
2023-05-14T12:51:12.268Z,4.30
2023-05-14T12:53:40.674Z,4.68
2023-05-14T12:56:09.035Z,5.03
2023-05-14T12:58:37.144Z,4.53
2023-05-14T13:01:06.027Z,4.85
2023-05-14T13:03:37.820Z,4.97
2023-05-14T13:06:06.238Z,4.65
2023-05-14T13:08:34.263Z,5.35
2023-05-14T13:11:02.177Z,5.30
2023-05-14T13:13:30.230Z,5.60
2023-05-14T13:15:58.209Z,5.22
2023-05-14T13:18:27.088Z,5.05
2023-05-14T13:20:56.418Z,4.90
2023-05-14T13:23:24.825Z,4.85
2023-05-14T13:25:52.924Z,5.03
2023-05-14T13:28:20.784Z,4.82
2023-05-14T13:31:05.983Z,5.05
2023-05-14T13:33:35.812Z,5.18
2023-05-14T13:36:06.123Z,5.65
2023-05-14T13:38:34.352Z,4.95
2023-05-14T13:41:03.006Z,4.53
2023-05-14T13:43:31.927Z,5.43
2023-05-14T13:46:00.409Z,4.93
2023-05-14T13:48:28.732Z,5.05
2023-05-14T13:50:56.715Z,4.80
2023-05-14T13:53:26.776Z,4.38
2023-05-14T13:55:56.635Z,3.65
2023-05-14T13:58:25.256Z,4.90
2023-05-14T14:00:53.876Z,4.43
2023-05-14T14:03:21.862Z,4.40
2023-05-14T14:05:50.059Z,4.30
2023-05-14T14:08:23.896Z,3.92
2023-05-14T14:10:55.686Z,3.40
2023-05-14T14:13:24.323Z,3.80
2023-05-14T14:15:52.462Z,4.10
2023-05-14T14:18:20.708Z,3.97
2023-05-14T14:20:48.944Z,3.75
2023-05-14T14:23:17.222Z,3.65
2023-05-14T14:25:45.262Z,3.88
2023-05-14T14:28:14.583Z,3.25
2023-05-14T14:30:44.850Z,3.80
2023-05-14T14:33:12.957Z,3.00
2023-05-14T14:35:41.027Z,3.08
2023-05-14T14:38:08.896Z,3.45
2023-05-14T14:40:36.845Z,3.08
2023-05-14T14:43:04.721Z,2.60
2023-05-14T14:45:33.979Z,3.10
2023-05-14T14:48:27.945Z,3.22
2023-05-14T14:50:56.417Z,3.50
2023-05-14T14:53:25.315Z,2.67
2023-05-14T14:55:53.417Z,2.78
2023-05-14T14:58:22.273Z,2.72
2023-05-14T15:00:53.736Z,3.40
2023-05-14T15:03:22.406Z,2.97
2023-05-14T15:05:51.161Z,2.95
2023-05-14T15:08:19.168Z,2.75
2023-05-14T15:10:47.569Z,2.42
2023-05-14T15:13:15.814Z,2.60
2023-05-14T15:15:43.760Z,2.70
2023-05-14T15:18:13.369Z,2.40
2023-05-14T15:20:41.348Z,2.60
2023-05-14T15:23:11.451Z,2.60
2023-05-14T15:25:39.661Z,2.40
2023-05-14T15:28:08.477Z,2.33
2023-05-14T15:30:36.788Z,2.88
2023-05-14T15:33:05.222Z,2.75
2023-05-14T15:35:34.647Z,2.88
2023-05-14T15:38:03.281Z,2.30
2023-05-14T15:40:31.285Z,2.35
2023-05-14T15:42:59.234Z,2.63
2023-05-14T15:45:28.479Z,2.33
2023-05-14T15:47:56.450Z,2.20
2023-05-14T15:50:25.740Z,2.25
2023-05-14T15:52:55.665Z,1.20
2023-05-14T15:55:23.712Z,1.40
2023-05-14T15:57:51.641Z,1.27
2023-05-14T16:00:20.245Z,1.50
2023-05-14T16:02:48.362Z,1.40
2023-05-14T16:05:16.409Z,1.80
2023-05-14T16:07:44.540Z,1.80
2023-05-14T16:10:14.146Z,1.50
2023-05-14T16:12:42.085Z,1.70
2023-05-14T16:15:10.917Z,1.60
2023-05-14T16:17:38.868Z,2.00
2023-05-14T16:20:07.888Z,1.98
2023-05-14T16:22:36.508Z,2.58
2023-05-14T16:25:05.782Z,3.10
2023-05-14T16:27:35.765Z,2.80
2023-05-14T16:30:04.437Z,3.60
2023-05-14T16:32:32.379Z,3.85
2023-05-14T16:35:33.885Z,3.70
2023-05-14T16:38:01.870Z,4.07
2023-05-14T16:40:30.201Z,4.38
2023-05-14T16:42:59.435Z,4.35
2023-05-14T16:45:27.429Z,4.90
2023-05-14T16:47:55.499Z,5.20
2023-05-14T16:50:23.487Z,4.80
2023-05-14T16:52:51.826Z,4.60
2023-05-14T16:55:20.590Z,4.72
2023-05-14T16:57:48.541Z,4.40
2023-05-14T17:00:18.169Z,4.45
2023-05-14T17:02:49.018Z,4.00
2023-05-14T17:05:17.209Z,4.22
2023-05-14T17:07:45.131Z,3.70
2023-05-14T17:10:13.361Z,2.83
2023-05-14T17:12:41.332Z,3.00
2023-05-14T17:15:10.305Z,3.28
2023-05-14T17:17:39.925Z,2.63
2023-05-14T17:20:08.720Z,2.70
2023-05-14T17:22:36.651Z,2.70
2023-05-14T17:25:05.375Z,2.47
2023-05-14T17:27:33.373Z,2.95
2023-05-14T17:30:04.381Z,2.67
2023-05-14T17:32:32.415Z,2.85
2023-05-14T17:35:01.754Z,2.92
2023-05-14T17:37:29.959Z,2.90
2023-05-14T17:39:57.944Z,3.30
2023-05-14T17:42:26.337Z,3.30
2023-05-14T17:44:54.689Z,2.90
2023-05-14T17:47:23.102Z,2.80
2023-05-14T17:49:52.506Z,2.63
2023-05-14T17:52:22.035Z,3.20
2023-05-14T17:54:50.107Z,2.88
2023-05-14T17:57:18.226Z,3.00
2023-05-14T17:59:46.372Z,3.10
2023-05-14T18:02:14.445Z,3.03
2023-05-14T18:04:42.464Z,2.83
2023-05-14T18:07:10.395Z,3.10
2023-05-14T18:09:39.693Z,3.15
2023-05-14T18:12:08.652Z,2.97
2023-05-14T18:14:36.664Z,3.10
2023-05-14T18:17:04.825Z,2.83
2023-05-14T18:19:32.773Z,2.88
2023-05-14T18:22:00.669Z,2.90
2023-05-14T18:24:31.678Z,2.60
2023-05-14T18:27:01.202Z,2.78
2023-05-14T18:29:29.180Z,2.60
2023-05-14T18:31:57.125Z,2.75
2023-05-14T18:34:25.159Z,2.63
2023-05-14T18:36:53.502Z,2.28
2023-05-14T18:39:21.417Z,2.58
2023-05-14T18:41:49.526Z,2.78
2023-05-14T18:44:18.809Z,2.95
2023-05-14T18:46:47.017Z,2.90
2023-05-14T18:49:15.219Z,3.00
2023-05-14T18:51:44.682Z,3.30
2023-05-14T18:54:13.702Z,3.33
2023-05-14T18:56:46.759Z,3.45
2023-05-14T18:59:15.509Z,3.47
2023-05-14T19:01:44.830Z,4.00
2023-05-14T19:04:13.054Z,3.75
2023-05-14T19:06:41.390Z,3.95
2023-05-14T19:09:09.657Z,3.67
2023-05-14T19:11:38.573Z,3.65
2023-05-14T19:14:06.546Z,3.78
2023-05-14T19:16:34.630Z,3.30
2023-05-14T19:19:04.089Z,3.40
2023-05-14T19:21:32.100Z,3.20
2023-05-14T19:24:00.183Z,3.10
2023-05-14T19:26:28.193Z,3.00
2023-05-14T19:28:58.971Z,3.45
2023-05-14T19:31:27.504Z,3.42
2023-05-14T19:34:23.649Z,3.50
2023-05-14T19:36:54.344Z,3.15
2023-05-14T19:39:24.312Z,3.33
2023-05-14T19:41:52.729Z,3.47
2023-05-14T19:44:21.061Z,3.03
2023-05-14T19:46:49.078Z,3.60
2023-05-14T19:49:18.375Z,3.72
2023-05-14T19:51:46.407Z,4.38
2023-05-14T19:54:15.704Z,3.97
2023-05-14T19:56:46.061Z,4.10
2023-05-14T19:59:15.572Z,4.20
2023-05-14T20:01:45.969Z,4.40
2023-05-14T20:04:17.857Z,4.75
2023-05-14T20:07:21.048Z,4.15
2023-05-14T20:09:49.130Z,4.57
2023-05-14T20:12:17.861Z,4.90
2023-05-14T20:14:47.552Z,5.05
2023-05-14T20:17:15.578Z,4.97
2023-05-14T20:19:44.071Z,5.63
2023-05-14T20:22:13.984Z,5.57
2023-05-14T20:24:42.310Z,5.43
2023-05-14T20:27:13.799Z,6.20
2023-05-14T20:29:44.373Z,5.88
2023-05-14T20:32:12.844Z,6.72
2023-05-14T20:34:42.171Z,6.15
2023-05-14T20:37:10.203Z,7.13
2023-05-14T20:39:39.518Z,6.10
2023-05-14T20:42:08.307Z,6.13
2023-05-14T20:44:36.872Z,6.18
2023-05-14T20:47:05.813Z,6.63
2023-05-14T20:49:34.027Z,7.07
2023-05-14T20:52:02.226Z,6.97
2023-05-14T20:54:30.583Z,6.85
2023-05-14T20:57:00.302Z,6.65
2023-05-14T20:59:31.378Z,7.35
2023-05-14T21:01:59.955Z,7.32
2023-05-14T21:04:29.831Z,7.05
2023-05-14T21:06:59.895Z,7.60
2023-05-14T21:09:28.752Z,7.43
2023-05-14T21:11:56.756Z,6.88
2023-05-14T21:14:26.198Z,7.40
2023-05-14T21:16:55.603Z,7.15
2023-05-14T21:19:24.219Z,6.95
2023-05-14T21:21:52.690Z,8.13
2023-05-14T21:24:20.714Z,9.38
2023-05-14T21:26:49.723Z,8.68
2023-05-14T21:29:18.601Z,6.47
2023-05-14T21:31:49.254Z,6.05
2023-05-14T21:34:17.628Z,5.50
2023-05-14T21:36:45.675Z,6.07
2023-05-14T21:39:14.068Z,6.25
2023-05-14T21:41:42.088Z,5.50
2023-05-14T21:44:10.451Z,6.55
2023-05-14T21:46:40.768Z,6.40
2023-05-14T21:49:10.120Z,6.65
2023-05-14T21:51:38.439Z,6.90
2023-05-14T21:54:07.089Z,6.90
2023-05-14T21:56:36.406Z,6.65
2023-05-14T21:59:04.781Z,5.05
2023-05-14T22:01:35.628Z,4.97
2023-05-14T22:04:13.957Z,4.35
2023-05-14T22:06:43.784Z,5.10
2023-05-14T22:09:12.203Z,4.45
2023-05-14T22:11:40.927Z,4.72
2023-05-14T22:14:08.885Z,4.80
2023-05-14T22:16:39.863Z,5.05
2023-05-14T22:19:08.521Z,5.07
2023-05-14T22:21:38.030Z,5.38
2023-05-14T22:24:06.898Z,6.00
2023-05-14T22:26:36.428Z,5.88
2023-05-14T22:29:04.771Z,5.40
2023-05-14T22:31:32.865Z,5.50
2023-05-14T22:34:00.900Z,5.78
2023-05-14T22:36:29.585Z,6.13
2023-05-14T22:38:59.048Z,6.25
2023-05-14T22:41:33.068Z,6.22
2023-05-14T22:44:02.202Z,6.05
2023-05-14T22:46:31.777Z,6.38
2023-05-14T22:49:00.199Z,6.78
2023-05-14T22:51:30.189Z,6.82
2023-05-14T22:53:59.626Z,6.80
2023-05-14T22:56:29.061Z,7.03
2023-05-14T22:58:57.316Z,7.05
2023-05-14T23:01:26.674Z,6.97
2023-05-14T23:03:56.077Z,6.25
2023-05-14T23:06:24.870Z,6.25
2023-05-14T23:08:52.897Z,6.55
2023-05-14T23:11:22.951Z,6.43
2023-05-14T23:13:51.729Z,6.72
2023-05-14T23:16:20.543Z,6.28
2023-05-14T23:18:48.726Z,6.43
2023-05-14T23:21:17.057Z,6.55
2023-05-14T23:23:45.382Z,6.25
2023-05-14T23:26:13.614Z,6.95
2023-05-14T23:28:43.019Z,7.20
2023-05-14T23:31:11.858Z,7.82
2023-05-14T23:33:41.979Z,7.30
2023-05-14T23:36:11.013Z,7.40
2023-05-14T23:38:39.550Z,8.77
2023-05-14T23:41:07.537Z,7.60
2023-05-14T23:43:36.047Z,7.60
2023-05-14T23:46:05.951Z,7.68
2023-05-14T23:48:34.405Z,7.63
2023-05-14T23:51:02.370Z,8.15
2023-05-14T23:53:30.393Z,7.60
2023-05-14T23:55:59.718Z,6.82
2023-05-14T23:58:29.871Z,6.57
